ポンタ・デルガダ の空港の天気 - METARとTAF

ポンタ・デルガダ空港 ( LPPD / PDL ) - ポルトガル ポンタ・デルガダ (サンミゲル島)
飛行場実況気象(Metar)
観測時間01/21 16:30 AZOT (01/21 17:30 UTC)
風向・風速南 5m/s
視程10km以上
天気現象
少しの雲 雲底高度 610m
全天の8割程度の雲 雲底高度 1220m
気温18℃
湿度73%
気圧1028hPa
METARLPPD 211730Z 19010KT 9999 FEW020 BKN040 18/13 Q1028
過去の天気等 Google飛行場航空写真 Wunderground天気予報

過去48時間のMETAR

飛行場予報(TAF)
発表時間: 1/21 16:00 AZOT (1/21 17:00 UTC)
予報対象時間: 21日17時 AZOT ~ 22日17時 AZOT
風向・風速南南西 6m/s
視程10km以上
少しの雲 雲底高度 460m
全天の8割程度の雲 雲底高度 1,070m
21日17時 AZOT ~ 22日17時 AZOT に 確率 40% で一時的に
視程6,000m
天気現象弱い雨霧雨
全天の4割程度の雲 雲底高度 180m
全天の8割程度の雲 雲底高度 370m
TAF LPPD 211700Z 2118/2218 21012KT 9999 FEW015 BKN035
PROB40 TEMPO 2118/2218 6000 -RADZ SCT006 BKN012